createdAt,value
2023-05-15T00:00:37.788Z,100.00
2023-05-15T00:03:07.546Z,100.00
2023-05-15T00:05:37.490Z,100.00
2023-05-15T00:08:07.271Z,100.00
2023-05-15T00:10:37.376Z,100.00
2023-05-15T00:13:07.580Z,100.00
2023-05-15T00:15:37.155Z,100.00
2023-05-15T00:18:06.624Z,100.00
2023-05-15T00:20:36.341Z,100.00
2023-05-15T00:23:05.684Z,100.00
2023-05-15T00:25:35.107Z,100.00
2023-05-15T00:28:04.526Z,100.00
2023-05-15T00:30:34.037Z,100.00
2023-05-15T00:33:03.401Z,100.00
2023-05-15T00:35:34.189Z,100.00
2023-05-15T00:38:03.804Z,100.00
2023-05-15T00:40:34.077Z,100.00
2023-05-15T00:43:04.184Z,100.00
2023-05-15T00:45:33.917Z,100.00
2023-05-15T00:48:03.431Z,100.00
2023-05-15T00:50:34.289Z,100.00
2023-05-15T00:53:04.860Z,100.00
2023-05-15T00:55:35.456Z,100.00
2023-05-15T00:58:05.298Z,100.00
2023-05-15T01:00:35.066Z,100.00
2023-05-15T01:03:06.621Z,100.00
2023-05-15T01:05:35.984Z,100.00
2023-05-15T01:08:24.159Z,100.00
2023-05-15T01:10:54.398Z,100.00
2023-05-15T01:13:24.340Z,100.00
2023-05-15T01:15:55.434Z,100.00
2023-05-15T01:18:26.197Z,100.00
2023-05-15T01:21:04.961Z,100.00
2023-05-15T01:23:52.371Z,100.00
2023-05-15T01:26:42.605Z,100.00
2023-05-15T01:29:31.813Z,100.00
2023-05-15T01:32:07.415Z,100.00
2023-05-15T01:34:48.971Z,100.00
2023-05-15T01:37:20.105Z,100.00
2023-05-15T01:39:52.588Z,100.00
2023-05-15T01:42:22.237Z,100.00
2023-05-15T01:44:54.348Z,100.00
2023-05-15T01:47:27.460Z,100.00
2023-05-15T01:49:57.114Z,100.00
2023-05-15T01:52:29.950Z,100.00
2023-05-15T01:54:59.932Z,100.00
2023-05-15T01:57:31.044Z,100.00
2023-05-15T02:00:01.406Z,100.00
2023-05-15T02:02:32.279Z,100.00
2023-05-15T02:05:03.354Z,100.00
2023-05-15T02:07:33.520Z,100.00
2023-05-15T02:10:04.062Z,100.00
2023-05-15T02:12:34.046Z,100.00
2023-05-15T02:15:05.465Z,100.00
2023-05-15T02:17:34.829Z,100.00
2023-05-15T02:20:06.475Z,100.00
2023-05-15T02:22:36.621Z,100.00
2023-05-15T02:25:06.539Z,100.00
2023-05-15T02:27:57.428Z,100.00
2023-05-15T02:30:47.381Z,100.00
2023-05-15T02:33:25.780Z,100.00
2023-05-15T02:36:00.812Z,100.00
2023-05-15T02:38:36.037Z,100.00
2023-05-15T02:41:06.576Z,100.00
2023-05-15T02:43:38.652Z,100.00
2023-05-15T02:46:09.072Z,100.00
2023-05-15T02:48:42.770Z,100.00
2023-05-15T02:51:12.527Z,100.00
2023-05-15T02:53:42.827Z,100.00
2023-05-15T02:56:12.505Z,100.00
2023-05-15T02:58:42.163Z,100.00
2023-05-15T03:01:11.500Z,100.00
2023-05-15T03:03:40.768Z,100.00
2023-05-15T03:06:10.419Z,100.00
2023-05-15T03:08:39.739Z,100.00
2023-05-15T03:11:09.418Z,100.00
2023-05-15T03:13:38.767Z,100.00
2023-05-15T03:16:08.466Z,100.00
2023-05-15T03:18:37.817Z,100.00
2023-05-15T03:21:07.369Z,100.00
2023-05-15T03:23:37.823Z,100.00
2023-05-15T03:26:07.886Z,100.00
2023-05-15T03:28:37.238Z,100.00
2023-05-15T03:31:08.393Z,100.00
2023-05-15T03:33:38.619Z,100.00
2023-05-15T03:36:08.435Z,100.00
2023-05-15T03:38:38.104Z,100.00
2023-05-15T03:41:09.186Z,100.00
2023-05-15T03:43:38.670Z,100.00
2023-05-15T03:46:08.088Z,100.00
2023-05-15T03:48:37.653Z,100.00
2023-05-15T03:51:07.746Z,100.00
2023-05-15T03:53:37.135Z,100.00
2023-05-15T03:56:06.589Z,100.00
2023-05-15T03:58:36.323Z,100.00
2023-05-15T04:01:05.977Z,100.00
2023-05-15T04:03:35.367Z,100.00
2023-05-15T04:06:05.093Z,100.00
2023-05-15T04:08:34.387Z,100.00
2023-05-15T04:11:03.701Z,100.00
2023-05-15T04:13:33.018Z,100.00
2023-05-15T04:16:02.518Z,100.00
2023-05-15T04:18:32.442Z,100.00
2023-05-15T04:21:01.967Z,100.00
2023-05-15T04:23:31.247Z,100.00
2023-05-15T04:26:01.428Z,100.00
2023-05-15T04:28:31.753Z,100.00
2023-05-15T04:31:01.529Z,100.00
2023-05-15T04:33:30.910Z,100.00
2023-05-15T04:36:00.201Z,100.00
2023-05-15T04:38:29.547Z,100.00
2023-05-15T04:40:58.870Z,100.00
2023-05-15T04:43:28.197Z,100.00
2023-05-15T04:45:57.548Z,100.00
2023-05-15T04:48:26.891Z,100.00
2023-05-15T04:50:56.369Z,100.00
2023-05-15T04:53:25.663Z,100.00
2023-05-15T04:55:54.973Z,100.00
2023-05-15T04:58:24.251Z,100.00
2023-05-15T05:00:53.834Z,100.00
2023-05-15T05:03:23.186Z,100.00
2023-05-15T05:05:52.909Z,100.00
2023-05-15T05:08:22.252Z,100.00
2023-05-15T05:10:57.432Z,100.00
2023-05-15T05:13:27.086Z,100.00
2023-05-15T05:15:56.694Z,100.00
2023-05-15T05:18:27.043Z,100.00
2023-05-15T05:21:03.562Z,100.00
2023-05-15T05:23:33.344Z,100.00
2023-05-15T05:26:04.168Z,100.00
2023-05-15T05:28:33.772Z,100.00
2023-05-15T05:31:03.366Z,100.00
2023-05-15T05:33:33.073Z,100.00
2023-05-15T05:36:02.426Z,100.00
2023-05-15T05:38:32.487Z,100.00
2023-05-15T05:41:01.770Z,100.00
2023-05-15T05:43:32.620Z,100.00
2023-05-15T05:46:02.506Z,100.00
2023-05-15T05:48:31.986Z,100.00
2023-05-15T05:51:01.932Z,100.00
2023-05-15T05:53:31.246Z,100.00
2023-05-15T05:56:01.487Z,100.00
2023-05-15T05:58:31.156Z,100.00
2023-05-15T06:01:01.399Z,100.00
2023-05-15T06:03:31.254Z,100.00
2023-05-15T06:06:01.232Z,100.00
2023-05-15T06:08:30.690Z,100.00
2023-05-15T06:11:00.154Z,100.00
2023-05-15T06:13:29.710Z,100.00
2023-05-15T06:15:59.262Z,100.00
2023-05-15T06:18:28.604Z,100.00
2023-05-15T06:21:00.017Z,100.00
2023-05-15T06:23:29.311Z,97.67
2023-05-15T06:25:58.656Z,95.25
2023-05-15T06:28:28.210Z,92.40
2023-05-15T06:30:57.839Z,91.89
2023-05-15T06:33:27.327Z,91.08
2023-05-15T06:35:57.264Z,93.13
2023-05-15T06:38:26.545Z,94.77
2023-05-15T06:40:55.917Z,96.21
2023-05-15T06:43:25.622Z,94.77
2023-05-15T06:45:55.128Z,95.48
2023-05-15T06:48:24.874Z,94.42
2023-05-15T06:50:54.508Z,94.84
2023-05-15T06:53:24.111Z,94.12
2023-05-15T06:55:53.427Z,92.75
2023-05-15T06:58:22.695Z,93.24
2023-05-15T07:00:53.491Z,92.31
2023-05-15T07:03:23.146Z,93.75
2023-05-15T07:05:52.767Z,92.90
2023-05-15T07:08:22.152Z,90.24
2023-05-15T07:10:51.849Z,89.96
2023-05-15T07:13:22.028Z,89.36
2023-05-15T07:15:51.582Z,90.21
2023-05-15T07:18:21.225Z,89.63
2023-05-15T07:20:50.659Z,90.63
2023-05-15T07:23:19.937Z,91.72
2023-05-15T07:25:50.262Z,90.52
2023-05-15T07:28:19.537Z,91.61
2023-05-15T07:30:49.502Z,90.78
2023-05-15T07:33:18.812Z,88.76
2023-05-15T07:35:48.872Z,88.88
2023-05-15T07:38:18.938Z,89.57
2023-05-15T07:40:48.593Z,89.04
2023-05-15T07:43:18.035Z,88.04
2023-05-15T07:45:47.534Z,88.49
2023-05-15T07:48:18.547Z,87.86
2023-05-15T07:50:50.668Z,89.12
2023-05-15T07:53:20.439Z,90.07
2023-05-15T07:55:50.005Z,90.13
2023-05-15T07:58:19.453Z,89.14
2023-05-15T08:00:48.766Z,90.38
2023-05-15T08:03:18.212Z,91.11
2023-05-15T08:05:47.844Z,91.62
2023-05-15T08:08:17.182Z,91.69
2023-05-15T08:10:47.008Z,91.67
2023-05-15T08:13:16.539Z,91.25
2023-05-15T08:15:45.919Z,92.07
2023-05-15T08:18:15.511Z,91.71
2023-05-15T08:20:44.833Z,91.75
2023-05-15T08:23:14.115Z,92.41
2023-05-15T08:25:43.445Z,92.56
2023-05-15T08:28:14.754Z,92.28
2023-05-15T08:30:44.125Z,92.17
2023-05-15T08:33:13.455Z,92.58
2023-05-15T08:35:43.273Z,92.28
2023-05-15T08:38:12.937Z,91.57
2023-05-15T08:40:43.909Z,93.77
2023-05-15T08:43:19.280Z,92.75
2023-05-15T08:45:50.158Z,93.84
2023-05-15T08:48:21.432Z,93.31
2023-05-15T08:50:51.232Z,94.06
2023-05-15T08:53:20.863Z,91.92
2023-05-15T08:55:50.212Z,92.19
2023-05-15T08:58:22.022Z,90.23
2023-05-15T09:00:51.466Z,91.73
2023-05-15T09:03:22.802Z,92.34
2023-05-15T09:05:53.895Z,92.43
2023-05-15T09:08:24.024Z,91.54
2023-05-15T09:10:54.920Z,91.30
2023-05-15T09:13:24.522Z,93.53
2023-05-15T09:15:53.876Z,92.31
2023-05-15T09:18:24.126Z,92.58
2023-05-15T09:20:55.984Z,92.41
2023-05-15T09:23:29.070Z,91.59
2023-05-15T09:25:59.380Z,92.25
2023-05-15T09:28:34.172Z,92.25
2023-05-15T09:31:05.429Z,92.30
2023-05-15T09:33:37.634Z,92.14
2023-05-15T09:36:08.360Z,92.27
2023-05-15T09:38:42.919Z,92.26
2023-05-15T09:41:12.234Z,93.00
2023-05-15T09:43:43.011Z,94.07
2023-05-15T09:49:32.653Z,94.30
2023-05-15T09:52:02.584Z,94.32
2023-05-15T09:54:33.083Z,95.58
2023-05-15T09:57:15.463Z,95.02
2023-05-15T09:59:47.258Z,95.49
2023-05-15T10:02:35.258Z,95.86
2023-05-15T10:05:06.251Z,95.79
2023-05-15T10:07:36.828Z,96.30
2023-05-15T10:10:06.983Z,96.79
2023-05-15T10:12:37.008Z,96.89
2023-05-15T10:15:07.215Z,97.20
2023-05-15T10:17:37.168Z,97.70
2023-05-15T10:20:07.668Z,97.24
2023-05-15T10:22:39.602Z,97.58
2023-05-15T10:25:23.876Z,98.55
2023-05-15T10:27:53.564Z,97.05
2023-05-15T10:30:24.004Z,97.53
2023-05-15T10:32:53.678Z,98.58
2023-05-15T10:35:23.692Z,97.05
2023-05-15T10:37:54.187Z,96.83
2023-05-15T10:40:23.848Z,96.14
2023-05-15T10:42:53.921Z,96.71
2023-05-15T10:45:23.764Z,94.94
2023-05-15T10:47:54.303Z,95.13
2023-05-15T10:50:23.846Z,95.02
2023-05-15T10:52:53.746Z,95.65
2023-05-15T10:55:23.973Z,95.84
2023-05-15T10:57:54.924Z,96.21
2023-05-15T11:00:27.459Z,97.90
2023-05-15T11:02:58.750Z,96.71
2023-05-15T11:05:29.480Z,97.93
2023-05-15T11:08:21.648Z,97.98
2023-05-15T11:10:51.525Z,96.82
2023-05-15T11:13:21.461Z,96.40
2023-05-15T11:15:51.305Z,96.43
2023-05-15T11:18:21.939Z,96.40
2023-05-15T11:20:54.449Z,95.18
2023-05-15T11:23:24.344Z,94.20
2023-05-15T11:26:01.917Z,93.06
2023-05-15T11:28:31.672Z,92.83
2023-05-15T11:31:03.615Z,93.25
2023-05-15T11:33:33.102Z,93.94
2023-05-15T11:36:03.121Z,93.47
2023-05-15T11:38:35.577Z,92.65
2023-05-15T11:41:06.784Z,92.16
2023-05-15T11:43:39.244Z,91.51
2023-05-15T11:46:12.680Z,92.07
2023-05-15T11:51:45.000Z,90.57
2023-05-15T11:54:15.106Z,90.35
2023-05-15T11:56:45.632Z,89.85
2023-05-15T11:59:15.454Z,88.49
2023-05-15T12:01:49.362Z,88.92
2023-05-15T12:04:20.359Z,86.84
2023-05-15T12:06:49.871Z,85.52
2023-05-15T12:09:23.656Z,85.18
2023-05-15T12:11:54.439Z,83.53
2023-05-15T12:14:31.232Z,83.88
2023-05-15T12:17:04.792Z,83.52
2023-05-15T12:19:35.792Z,83.23
2023-05-15T12:22:08.402Z,83.09
2023-05-15T12:24:39.788Z,84.78
2023-05-15T12:27:09.549Z,86.93
2023-05-15T12:29:39.846Z,87.84
2023-05-15T12:32:09.632Z,89.49
2023-05-15T12:34:39.517Z,88.93
2023-05-15T12:37:12.116Z,89.57
2023-05-15T12:39:56.627Z,90.62
2023-05-15T12:42:26.348Z,91.21
2023-05-15T12:44:56.470Z,90.26
2023-05-15T12:47:27.997Z,88.68
2023-05-15T12:50:00.539Z,87.72
2023-05-15T12:52:30.590Z,87.44
2023-05-15T12:55:01.842Z,88.93
2023-05-15T12:57:31.359Z,90.41
2023-05-15T13:00:01.784Z,90.02
2023-05-15T13:02:31.372Z,90.78
2023-05-15T13:05:03.920Z,90.95
2023-05-15T13:07:33.347Z,89.46
2023-05-15T13:10:09.923Z,89.11
2023-05-15T13:12:46.878Z,88.93
2023-05-15T13:15:40.697Z,89.11
2023-05-15T13:18:15.181Z,87.98
2023-05-15T13:20:46.964Z,89.94
2023-05-15T13:23:23.618Z,87.82
2023-05-15T13:25:52.887Z,89.06
2023-05-15T13:28:22.208Z,89.32
2023-05-15T13:30:51.837Z,91.39
2023-05-15T13:33:21.164Z,90.20
2023-05-15T13:35:52.924Z,92.14
2023-05-15T13:38:22.230Z,92.78
2023-05-15T13:40:51.576Z,93.06
2023-05-15T13:43:21.110Z,92.23
2023-05-15T13:45:50.767Z,91.96
2023-05-15T13:48:20.073Z,91.20
2023-05-15T13:50:49.642Z,90.73
2023-05-15T13:53:19.081Z,88.81
2023-05-15T13:55:48.784Z,91.15
2023-05-15T13:58:18.216Z,90.14
2023-05-15T14:00:49.289Z,87.92
2023-05-15T14:03:19.531Z,88.92
2023-05-15T14:05:48.858Z,89.84
2023-05-15T14:08:18.539Z,89.19
2023-05-15T14:10:47.797Z,90.93
2023-05-15T14:13:17.439Z,90.30
2023-05-15T14:15:46.752Z,90.46
2023-05-15T14:18:16.395Z,89.98
2023-05-15T14:20:45.760Z,92.00
2023-05-15T14:23:15.989Z,92.30
2023-05-15T14:25:45.271Z,91.67
2023-05-15T14:28:14.663Z,90.90
2023-05-15T14:30:43.934Z,92.93
2023-05-15T14:33:13.678Z,91.76
2023-05-15T14:35:43.026Z,91.65
2023-05-15T14:38:12.452Z,90.86
2023-05-15T14:40:43.081Z,91.92
2023-05-15T14:43:12.588Z,90.93
2023-05-15T14:45:41.922Z,91.27
2023-05-15T14:48:11.818Z,90.89
2023-05-15T14:50:41.786Z,91.29
2023-05-15T14:53:11.222Z,89.78
2023-05-15T14:55:40.508Z,91.08
2023-05-15T14:58:11.555Z,91.42
2023-05-15T15:00:41.028Z,91.59
2023-05-15T15:03:11.156Z,93.76
2023-05-15T15:05:41.094Z,92.36
2023-05-15T15:08:11.648Z,96.68
2023-05-15T15:10:43.786Z,96.16
2023-05-15T15:13:14.041Z,95.59
2023-05-15T15:15:43.934Z,93.92
2023-05-15T15:18:13.490Z,92.58
2023-05-15T15:20:43.088Z,93.24
2023-05-15T15:23:12.386Z,90.99
2023-05-15T15:25:41.950Z,93.36
2023-05-15T15:28:11.357Z,92.05
2023-05-15T15:30:40.920Z,93.15
2023-05-15T15:33:10.292Z,91.90
2023-05-15T15:35:40.291Z,92.02
2023-05-15T15:38:11.191Z,92.62
2023-05-15T15:40:41.833Z,92.41
2023-05-15T15:43:11.154Z,92.66
2023-05-15T15:45:41.206Z,91.32
2023-05-15T15:48:10.566Z,91.99
2023-05-15T15:50:40.035Z,90.59
2023-05-15T15:53:09.481Z,90.97
2023-05-15T15:55:39.240Z,92.04
2023-05-15T15:58:08.499Z,93.39
2023-05-15T16:00:38.968Z,93.78
2023-05-15T16:03:08.575Z,92.97
2023-05-15T16:05:38.355Z,93.62
2023-05-15T16:08:07.778Z,94.55
2023-05-15T16:10:37.155Z,95.22
2023-05-15T16:13:06.985Z,96.19
2023-05-15T16:15:36.412Z,96.04
2023-05-15T16:18:05.926Z,96.67
2023-05-15T16:20:35.532Z,99.50
2023-05-15T16:23:04.841Z,100.00
2023-05-15T16:25:34.164Z,100.00
2023-05-15T16:28:03.810Z,99.55
2023-05-15T16:30:47.176Z,100.00
2023-05-15T16:33:05.166Z,100.00
2023-05-15T16:35:36.326Z,100.00
2023-05-15T16:38:06.539Z,100.00
2023-05-15T16:40:35.822Z,100.00
2023-05-15T16:43:05.222Z,100.00
2023-05-15T16:45:34.558Z,100.00
2023-05-15T16:48:04.183Z,100.00
2023-05-15T16:50:36.102Z,100.00
2023-05-15T16:53:05.858Z,100.00
2023-05-15T16:55:35.331Z,100.00
2023-05-15T16:58:04.629Z,100.00
2023-05-15T17:00:33.956Z,100.00
2023-05-15T17:03:04.577Z,100.00
2023-05-15T17:05:34.580Z,100.00
2023-05-15T17:08:03.932Z,100.00
2023-05-15T17:10:33.737Z,100.00
2023-05-15T17:13:03.082Z,100.00
2023-05-15T17:15:32.423Z,100.00
2023-05-15T17:18:01.762Z,100.00
2023-05-15T17:20:31.121Z,100.00
2023-05-15T17:23:00.430Z,100.00
2023-05-15T17:25:29.722Z,100.00
2023-05-15T17:27:59.064Z,100.00
2023-05-15T17:30:28.794Z,100.00
2023-05-15T17:33:00.548Z,100.00
2023-05-15T17:35:32.798Z,100.00
2023-05-15T17:38:01.436Z,100.00
2023-05-15T17:40:31.011Z,100.00
2023-05-15T17:43:00.520Z,100.00
2023-05-15T17:45:29.917Z,100.00
2023-05-15T17:48:01.079Z,100.00
2023-05-15T17:50:30.943Z,100.00
2023-05-15T17:53:00.663Z,100.00
2023-05-15T17:55:30.156Z,100.00
2023-05-15T17:57:59.487Z,99.87
2023-05-15T18:00:29.062Z,99.36
2023-05-15T18:02:58.539Z,99.01
2023-05-15T18:05:28.465Z,99.70
2023-05-15T18:07:59.702Z,98.98
2023-05-15T18:10:29.074Z,99.71
2023-05-15T18:12:59.619Z,100.00
2023-05-15T18:15:30.690Z,98.99
2023-05-15T18:18:00.524Z,97.97
2023-05-15T18:20:30.075Z,98.62
2023-05-15T18:22:59.493Z,99.05
2023-05-15T18:25:28.973Z,99.32
2023-05-15T18:27:58.629Z,99.14
2023-05-15T18:30:28.178Z,98.89
2023-05-15T18:32:58.539Z,99.46
2023-05-15T18:35:28.086Z,98.22
2023-05-15T18:37:57.869Z,99.42
2023-05-15T18:40:27.284Z,100.00
2023-05-15T18:42:57.015Z,100.00
2023-05-15T18:45:27.070Z,98.98
2023-05-15T18:47:57.104Z,98.10
2023-05-15T18:50:26.789Z,99.25
2023-05-15T18:52:56.384Z,99.22
2023-05-15T18:55:27.690Z,100.00
2023-05-15T18:57:57.766Z,99.05
2023-05-15T19:00:38.083Z,98.42
2023-05-15T19:02:58.666Z,98.25
2023-05-15T19:05:28.336Z,98.64
2023-05-15T19:07:57.702Z,98.55
2023-05-15T19:10:28.996Z,98.15
2023-05-15T19:12:58.967Z,98.68
2023-05-15T19:15:28.557Z,99.83
2023-05-15T19:17:57.944Z,100.00
2023-05-15T19:20:28.019Z,100.00
2023-05-15T19:22:57.555Z,100.00
2023-05-15T19:25:30.065Z,100.00
2023-05-15T19:27:59.355Z,100.00
2023-05-15T19:30:28.920Z,100.00
2023-05-15T19:32:58.252Z,100.00
2023-05-15T19:35:28.358Z,100.00
2023-05-15T19:37:57.840Z,100.00
2023-05-15T19:40:27.816Z,100.00
2023-05-15T19:42:57.551Z,100.00
2023-05-15T19:45:27.243Z,100.00
2023-05-15T19:47:57.024Z,100.00
2023-05-15T19:50:27.007Z,100.00
2023-05-15T19:52:57.047Z,100.00
2023-05-15T19:55:26.622Z,100.00
2023-05-15T19:57:57.407Z,100.00
2023-05-15T20:00:27.260Z,100.00
2023-05-15T20:02:57.222Z,100.00
2023-05-15T20:05:26.723Z,100.00
2023-05-15T20:07:56.430Z,100.00
2023-05-15T20:10:26.323Z,100.00
2023-05-15T20:12:56.031Z,99.31
2023-05-15T20:15:25.649Z,96.89
2023-05-15T20:17:55.631Z,97.09
2023-05-15T20:20:25.498Z,96.39
2023-05-15T20:22:55.330Z,96.42
2023-05-15T20:25:24.778Z,96.55
2023-05-15T20:27:55.824Z,96.09
2023-05-15T20:30:25.629Z,96.52
2023-05-15T20:32:55.514Z,96.30
2023-05-15T20:35:26.012Z,96.69
2023-05-15T20:37:56.458Z,96.95
2023-05-15T20:40:28.901Z,96.77
2023-05-15T20:42:57.800Z,97.31
2023-05-15T20:45:27.362Z,96.75
2023-05-15T20:47:57.608Z,97.63
2023-05-15T20:50:27.404Z,95.56
2023-05-15T20:52:56.932Z,96.12
2023-05-15T20:55:26.695Z,93.12
2023-05-15T20:57:56.044Z,92.83
2023-05-15T21:00:25.842Z,91.68
2023-05-15T21:02:55.497Z,91.38
2023-05-15T21:05:25.062Z,91.52
2023-05-15T21:07:54.502Z,90.91
2023-05-15T21:10:24.357Z,92.14
2023-05-15T21:12:55.099Z,91.88
2023-05-15T21:15:25.311Z,91.57
2023-05-15T21:17:54.907Z,91.87
2023-05-15T21:20:24.433Z,90.87
2023-05-15T21:22:54.089Z,89.32
2023-05-15T21:25:23.724Z,90.09
2023-05-15T21:27:53.341Z,89.46
2023-05-15T21:30:22.719Z,90.36
2023-05-15T21:32:52.081Z,90.73
2023-05-15T21:35:21.451Z,90.48
2023-05-15T21:37:50.835Z,90.45
2023-05-15T21:40:20.167Z,91.11
2023-05-15T21:42:49.498Z,92.07
2023-05-15T21:45:19.505Z,92.45
2023-05-15T21:47:48.894Z,93.50
2023-05-15T21:50:18.733Z,92.92
2023-05-15T21:52:49.783Z,94.03
2023-05-15T21:55:19.590Z,93.13
2023-05-15T21:57:48.847Z,92.72
2023-05-15T22:00:18.472Z,94.11
2023-05-15T22:02:47.920Z,93.53
2023-05-15T22:05:18.910Z,93.43
2023-05-15T22:07:48.218Z,93.32
2023-05-15T22:10:17.946Z,93.89
2023-05-15T22:12:47.293Z,94.28
2023-05-15T22:15:16.991Z,94.67
2023-05-15T22:17:46.491Z,95.13
2023-05-15T22:20:17.582Z,94.51
2023-05-15T22:22:46.995Z,95.42
2023-05-15T22:25:16.446Z,94.09
2023-05-15T22:27:45.829Z,94.22
2023-05-15T22:30:15.626Z,94.46
2023-05-15T22:32:45.320Z,95.11
2023-05-15T22:35:14.780Z,95.28
2023-05-15T22:37:45.481Z,95.85
2023-05-15T22:40:15.503Z,95.63
2023-05-15T22:42:44.834Z,96.31
2023-05-15T22:45:14.627Z,96.19
2023-05-15T22:47:44.343Z,96.50
2023-05-15T22:50:14.265Z,96.69
2023-05-15T22:52:43.713Z,96.09
2023-05-15T22:55:13.158Z,97.05
2023-05-15T22:57:43.941Z,96.67
2023-05-15T23:00:14.681Z,96.69
2023-05-15T23:02:44.958Z,96.70
2023-05-15T23:05:14.626Z,95.97
2023-05-15T23:07:43.876Z,95.84
2023-05-15T23:10:13.453Z,95.25
2023-05-15T23:12:43.006Z,94.65
2023-05-15T23:15:12.735Z,95.07
2023-05-15T23:17:42.004Z,95.16
2023-05-15T23:20:13.538Z,95.39
2023-05-15T23:22:42.892Z,95.03
2023-05-15T23:25:12.429Z,94.60
2023-05-15T23:27:41.780Z,95.57
2023-05-15T23:30:11.413Z,96.42
2023-05-15T23:32:40.794Z,96.30
2023-05-15T23:35:10.797Z,96.02
2023-05-15T23:37:40.072Z,96.38
2023-05-15T23:40:10.408Z,96.48
2023-05-15T23:42:39.690Z,96.58
2023-05-15T23:45:10.359Z,96.45
2023-05-15T23:47:40.586Z,96.46
2023-05-15T23:50:10.363Z,96.24
2023-05-15T23:52:39.671Z,96.05
2023-05-15T23:55:09.596Z,96.52
2023-05-15T23:57:39.189Z,95.85
